createdAt,value
2022-11-16T00:02:22.618Z,25.95
2022-11-16T00:04:49.395Z,25.13
2022-11-16T00:07:16.193Z,25.25
2022-11-16T00:09:42.939Z,25.30
2022-11-16T00:12:11.248Z,25.92
2022-11-16T00:14:38.022Z,25.15
2022-11-16T00:17:05.105Z,26.38
2022-11-16T00:19:31.958Z,26.92
2022-11-16T00:21:59.071Z,25.77
2022-11-16T00:24:25.754Z,25.40
2022-11-16T00:26:54.421Z,25.65
2022-11-16T00:29:23.416Z,26.13
2022-11-16T00:31:54.098Z,25.67
2022-11-16T00:34:22.110Z,26.08
2022-11-16T00:36:48.913Z,27.38
2022-11-16T00:39:16.592Z,25.42
2022-11-16T00:41:45.705Z,26.27
2022-11-16T00:44:12.532Z,26.00
2022-11-16T00:46:39.731Z,24.50
2022-11-16T00:49:06.796Z,24.55
2022-11-16T00:51:34.722Z,24.80
2022-11-16T00:54:02.235Z,25.08
2022-11-16T00:56:29.626Z,25.23
2022-11-16T00:58:56.456Z,25.67
2022-11-16T01:01:23.302Z,25.42
2022-11-16T01:03:51.038Z,25.15
2022-11-16T01:06:20.403Z,24.25
2022-11-16T01:08:47.323Z,23.77
2022-11-16T01:11:34.049Z,24.75
2022-11-16T01:14:03.552Z,25.10
2022-11-16T01:16:30.704Z,25.23
2022-11-16T01:18:57.559Z,25.08
2022-11-16T01:21:25.292Z,25.10
2022-11-16T01:23:52.159Z,23.00
2022-11-16T01:26:19.115Z,24.77
2022-11-16T01:28:45.861Z,24.48
2022-11-16T01:31:13.333Z,25.15
2022-11-16T01:33:41.285Z,26.02
2022-11-16T01:36:17.492Z,23.98
2022-11-16T01:38:45.866Z,24.17
2022-11-16T01:41:21.057Z,23.92
2022-11-16T01:44:06.040Z,23.35
2022-11-16T01:46:44.337Z,23.75
2022-11-16T01:49:15.971Z,24.95
2022-11-16T01:51:44.811Z,24.75
2022-11-16T01:54:13.471Z,24.30
2022-11-16T01:56:51.107Z,23.70
2022-11-16T01:59:29.535Z,23.38
2022-11-16T02:01:59.866Z,24.77
2022-11-16T02:04:26.975Z,24.35
2022-11-16T02:07:04.817Z,22.30
2022-11-16T02:09:59.015Z,22.65
2022-11-16T02:12:54.696Z,22.63
2022-11-16T02:15:36.702Z,23.48
2022-11-16T02:18:22.747Z,23.77
2022-11-16T02:21:06.600Z,23.90
2022-11-16T02:23:43.446Z,23.38
2022-11-16T02:26:44.109Z,24.52
2022-11-16T02:29:30.428Z,24.20
2022-11-16T02:32:11.713Z,23.33
2022-11-16T02:34:42.378Z,23.60
2022-11-16T02:37:11.438Z,24.17
2022-11-16T02:39:39.220Z,22.90
2022-11-16T02:42:10.859Z,23.98
2022-11-16T02:44:43.501Z,23.38
2022-11-16T02:47:13.890Z,21.55
2022-11-16T02:49:45.816Z,21.63
2022-11-16T02:52:15.308Z,23.00
2022-11-16T02:54:42.512Z,21.83
2022-11-16T02:57:09.493Z,22.40
2022-11-16T02:59:43.498Z,22.67
2022-11-16T03:02:53.865Z,21.75
2022-11-16T03:05:34.632Z,22.27
2022-11-16T03:08:32.743Z,22.45
2022-11-16T03:11:24.137Z,22.15
2022-11-16T03:13:56.471Z,22.33
2022-11-16T03:16:26.951Z,22.65
2022-11-16T03:18:55.964Z,21.38
2022-11-16T03:21:49.930Z,23.52
2022-11-16T03:24:18.254Z,21.40
2022-11-16T03:27:26.511Z,22.15
2022-11-16T03:30:00.420Z,22.67
2022-11-16T03:32:33.884Z,22.48
2022-11-16T03:35:11.283Z,22.52
2022-11-16T03:37:38.951Z,23.63
2022-11-16T03:40:06.856Z,23.17
2022-11-16T03:42:34.834Z,23.20
2022-11-16T03:45:02.261Z,23.52
2022-11-16T03:47:29.030Z,23.33
2022-11-16T03:49:55.837Z,24.05
2022-11-16T03:52:24.106Z,23.58
2022-11-16T03:54:51.256Z,23.38
2022-11-16T03:57:18.766Z,23.27
2022-11-16T03:59:51.597Z,23.55
2022-11-16T04:02:18.408Z,22.08
2022-11-16T04:05:04.208Z,23.40
2022-11-16T04:07:49.570Z,23.83
2022-11-16T04:10:35.018Z,22.75
2022-11-16T04:13:22.422Z,24.50
2022-11-16T04:16:08.694Z,24.50
2022-11-16T04:18:54.069Z,23.38
2022-11-16T04:21:45.387Z,23.95
2022-11-16T04:24:17.821Z,24.38
2022-11-16T04:27:06.872Z,25.60
2022-11-16T04:29:34.203Z,25.35
2022-11-16T04:32:19.576Z,25.23
2022-11-16T04:35:05.008Z,26.27
2022-11-16T04:37:50.302Z,27.20
2022-11-16T04:40:24.303Z,27.77
2022-11-16T04:43:09.232Z,29.17
2022-11-16T04:45:58.070Z,27.73
2022-11-16T04:48:30.287Z,29.30
2022-11-16T04:50:57.067Z,29.50
2022-11-16T04:53:27.224Z,29.35
2022-11-16T04:56:23.424Z,30.00
2022-11-16T04:58:50.305Z,31.75
2022-11-16T05:01:17.245Z,31.25
2022-11-16T05:03:44.139Z,31.48
2022-11-16T05:06:10.887Z,31.45
2022-11-16T05:08:37.712Z,32.25
2022-11-16T05:11:05.527Z,31.52
2022-11-16T05:13:32.786Z,31.00
2022-11-16T05:16:00.563Z,31.27
2022-11-16T05:18:27.354Z,31.88
2022-11-16T05:21:03.285Z,33.08
2022-11-16T05:23:54.286Z,34.05
2022-11-16T05:26:23.169Z,32.42
2022-11-16T05:28:51.105Z,33.55
2022-11-16T05:31:18.164Z,32.42
2022-11-16T05:33:45.255Z,33.33
2022-11-16T05:36:14.662Z,33.47
2022-11-16T05:38:41.511Z,33.15
2022-11-16T05:41:08.366Z,33.00
2022-11-16T05:43:35.141Z,33.83
2022-11-16T05:46:11.117Z,32.40
2022-11-16T05:48:38.800Z,33.25
2022-11-16T05:51:06.438Z,32.90
2022-11-16T05:53:34.475Z,32.35
2022-11-16T05:56:01.269Z,31.58
2022-11-16T05:58:29.245Z,33.35
2022-11-16T06:00:58.362Z,32.47
2022-11-16T06:03:25.319Z,33.85
2022-11-16T06:05:55.316Z,33.50
2022-11-16T06:08:24.918Z,34.55
2022-11-16T06:10:53.444Z,32.15
2022-11-16T06:13:20.445Z,32.33
2022-11-16T06:15:52.989Z,33.72
2022-11-16T06:18:19.895Z,33.30
2022-11-16T06:20:48.431Z,31.90
2022-11-16T06:23:15.309Z,30.15
2022-11-16T06:25:42.262Z,31.20
2022-11-16T06:28:09.783Z,29.38
2022-11-16T06:30:38.370Z,31.48
2022-11-16T06:33:06.655Z,29.30
2022-11-16T06:35:33.524Z,31.58
2022-11-16T06:38:00.850Z,31.52
2022-11-16T06:40:27.626Z,33.13
2022-11-16T06:42:54.394Z,31.75
2022-11-16T06:45:21.641Z,32.97
2022-11-16T06:47:52.990Z,32.95
2022-11-16T06:50:19.956Z,31.95
2022-11-16T06:52:48.279Z,32.65
2022-11-16T06:55:16.250Z,33.67
2022-11-16T06:57:43.257Z,31.23
2022-11-16T07:00:11.526Z,32.10
2022-11-16T07:02:39.400Z,33.80
2022-11-16T07:05:09.658Z,32.50
2022-11-16T07:07:36.830Z,31.15
2022-11-16T07:10:04.332Z,33.20
2022-11-16T07:12:32.472Z,33.83
2022-11-16T07:15:00.600Z,34.17
2022-11-16T07:17:29.999Z,32.83
2022-11-16T07:19:59.178Z,34.88
2022-11-16T07:22:26.156Z,34.15
2022-11-16T07:24:53.756Z,35.17
2022-11-16T07:27:21.397Z,33.42
2022-11-16T07:29:50.669Z,34.25
2022-11-16T07:32:36.077Z,34.80
2022-11-16T07:35:29.278Z,33.28
2022-11-16T07:37:56.260Z,34.45
2022-11-16T07:40:23.099Z,34.80
2022-11-16T07:42:50.125Z,35.13
2022-11-16T07:45:46.122Z,34.80
2022-11-16T07:48:12.938Z,34.38
2022-11-16T07:51:14.028Z,33.80
2022-11-16T07:53:47.035Z,33.50
2022-11-16T07:56:13.737Z,35.55
2022-11-16T07:58:41.802Z,34.88
2022-11-16T08:01:15.253Z,34.83
2022-11-16T08:03:44.459Z,35.03
2022-11-16T08:06:32.480Z,34.47
2022-11-16T08:08:59.733Z,34.15
2022-11-16T08:11:28.570Z,32.92
2022-11-16T08:13:57.162Z,33.28
2022-11-16T08:16:24.696Z,35.40
2022-11-16T08:19:00.976Z,34.63
2022-11-16T08:21:27.930Z,34.22
2022-11-16T08:23:58.335Z,34.38
2022-11-16T08:26:26.128Z,31.90
2022-11-16T08:28:58.581Z,31.67
2022-11-16T08:31:30.209Z,31.08
2022-11-16T08:34:08.003Z,32.35
2022-11-16T08:36:36.459Z,31.20
2022-11-16T08:39:03.810Z,32.35
2022-11-16T08:41:32.218Z,33.58
2022-11-16T08:44:01.258Z,32.45
2022-11-16T08:46:30.093Z,33.92
2022-11-16T08:49:07.237Z,32.75
2022-11-16T08:51:34.269Z,33.72
2022-11-16T08:54:05.388Z,34.58
2022-11-16T08:56:35.352Z,35.88
2022-11-16T08:59:05.231Z,35.38
2022-11-16T09:01:33.062Z,34.15
2022-11-16T09:04:01.575Z,32.67
2022-11-16T09:06:29.439Z,32.53
2022-11-16T09:08:58.743Z,34.88
2022-11-16T09:11:28.408Z,32.88
2022-11-16T09:13:56.182Z,31.08
2022-11-16T09:16:23.782Z,30.35
2022-11-16T09:18:51.459Z,32.70
2022-11-16T09:21:20.576Z,28.92
2022-11-16T09:23:48.219Z,30.85
2022-11-16T09:26:15.434Z,31.10
2022-11-16T09:28:42.860Z,29.77
2022-11-16T09:31:10.389Z,29.05
2022-11-16T09:33:37.427Z,29.65
2022-11-16T09:36:07.372Z,28.90
2022-11-16T09:39:03.315Z,29.75
2022-11-16T09:41:37.423Z,28.52
2022-11-16T09:44:08.206Z,30.30
2022-11-16T09:46:38.759Z,29.23
2022-11-16T09:49:19.993Z,29.80
2022-11-16T09:51:53.751Z,29.98
2022-11-16T09:54:23.172Z,27.55
2022-11-16T09:56:52.859Z,27.15
2022-11-16T09:59:28.971Z,25.63
2022-11-16T10:01:58.724Z,25.10
2022-11-16T10:04:28.471Z,25.67
2022-11-16T10:07:02.059Z,25.50
2022-11-16T10:09:29.759Z,23.52
2022-11-16T10:12:28.928Z,25.00
2022-11-16T10:15:23.728Z,23.20
2022-11-16T10:18:02.678Z,21.23
2022-11-16T10:20:58.252Z,20.70
2022-11-16T10:23:50.949Z,17.00
2022-11-16T10:26:28.644Z,16.83
2022-11-16T10:29:05.309Z,15.35
2022-11-16T10:31:48.787Z,16.55
2022-11-16T10:34:23.654Z,16.00
2022-11-16T10:36:50.708Z,15.65
2022-11-16T10:39:20.288Z,15.07
2022-11-16T10:41:50.851Z,14.75
2022-11-16T10:44:33.735Z,14.43
2022-11-16T10:47:06.638Z,13.27
2022-11-16T10:49:37.872Z,14.07
2022-11-16T10:52:05.028Z,13.85
2022-11-16T10:54:31.777Z,13.80
2022-11-16T10:57:05.241Z,14.18
2022-11-16T10:59:42.060Z,13.48
2022-11-16T11:02:34.897Z,14.23
2022-11-16T11:05:03.514Z,15.43
2022-11-16T11:07:32.977Z,15.18
2022-11-16T11:09:59.904Z,14.68
2022-11-16T11:12:39.872Z,14.40
2022-11-16T11:15:13.510Z,14.70
2022-11-16T11:17:47.301Z,15.38
2022-11-16T11:20:17.272Z,15.68
2022-11-16T11:22:56.146Z,16.65
2022-11-16T11:25:30.362Z,17.00
2022-11-16T11:28:22.246Z,17.10
2022-11-16T11:31:30.430Z,15.85
2022-11-16T11:34:05.415Z,17.50
2022-11-16T11:36:43.548Z,16.83
2022-11-16T11:39:13.489Z,17.30
2022-11-16T11:41:44.649Z,18.17
2022-11-16T11:44:18.282Z,17.90
2022-11-16T11:47:42.755Z,17.50
2022-11-16T11:49:42.494Z,17.60
2022-11-16T11:52:19.030Z,16.98
2022-11-16T11:54:49.583Z,17.95
2022-11-16T11:57:22.275Z,17.95
2022-11-16T11:59:51.002Z,17.02
2022-11-16T12:02:46.470Z,18.08
2022-11-16T12:05:29.617Z,17.25
2022-11-16T12:08:04.773Z,16.85
2022-11-16T12:10:40.607Z,17.17
2022-11-16T12:13:16.677Z,17.05
2022-11-16T12:15:49.769Z,16.85
2022-11-16T12:19:01.568Z,16.65
2022-11-16T12:21:50.838Z,16.27
2022-11-16T12:24:23.597Z,17.17
2022-11-16T12:27:07.451Z,17.77
2022-11-16T12:30:01.312Z,16.58
2022-11-16T12:32:36.944Z,15.18
2022-11-16T12:35:25.334Z,16.83
2022-11-16T12:38:15.271Z,17.30
2022-11-16T12:40:55.917Z,16.25
2022-11-16T12:43:43.953Z,17.55
2022-11-16T12:46:42.745Z,16.10
2022-11-16T12:49:24.484Z,16.42
2022-11-16T12:52:06.494Z,17.00
2022-11-16T12:55:28.213Z,17.05
2022-11-16T12:58:20.841Z,16.75
2022-11-16T13:01:16.158Z,17.48
2022-11-16T13:03:50.136Z,15.98
2022-11-16T13:06:21.905Z,15.68
2022-11-16T13:09:06.875Z,16.45
2022-11-16T13:11:47.438Z,17.65
2022-11-16T13:14:19.858Z,17.42
2022-11-16T13:16:48.088Z,17.17
2022-11-16T13:19:16.113Z,18.35
2022-11-16T13:21:51.977Z,17.42
2022-11-16T13:24:30.812Z,17.08
2022-11-16T13:27:13.038Z,18.50
2022-11-16T13:30:05.290Z,18.17
2022-11-16T13:32:48.467Z,17.63
2022-11-16T13:35:17.057Z,16.88
2022-11-16T13:37:45.481Z,17.42
2022-11-16T13:40:25.115Z,16.60
2022-11-16T13:43:02.433Z,17.92
2022-11-16T13:45:40.350Z,17.08
2022-11-16T13:48:20.215Z,17.80
2022-11-16T13:50:50.210Z,17.13
2022-11-16T13:56:24.158Z,16.92
2022-11-16T13:58:55.982Z,16.48
2022-11-16T14:01:24.106Z,17.08
2022-11-16T14:03:52.122Z,17.73
2022-11-16T14:06:25.113Z,16.83
2022-11-16T14:08:55.733Z,17.70
2022-11-16T14:11:37.431Z,16.27
2022-11-16T14:14:42.387Z,15.95
2022-11-16T14:17:09.074Z,16.92
2022-11-16T14:19:47.627Z,15.55
2022-11-16T14:22:36.483Z,16.05
2022-11-16T14:25:16.663Z,14.43
2022-11-16T14:27:52.133Z,15.65
2022-11-16T14:30:28.945Z,15.55
2022-11-16T14:32:56.578Z,14.90
2022-11-16T14:35:30.410Z,15.45
2022-11-16T14:37:58.841Z,14.80
2022-11-16T14:40:25.799Z,14.52
2022-11-16T14:46:01.098Z,13.65
2022-11-16T14:48:30.758Z,14.63
2022-11-16T14:51:21.273Z,14.15
2022-11-16T14:53:50.776Z,13.73
2022-11-16T14:56:21.885Z,13.75
2022-11-16T14:59:17.571Z,13.82
2022-11-16T15:01:44.917Z,14.35
2022-11-16T15:04:16.743Z,13.43
2022-11-16T15:06:50.162Z,13.15
2022-11-16T15:09:22.018Z,11.85
2022-11-16T15:12:08.639Z,12.90
2022-11-16T15:14:40.502Z,12.98
2022-11-16T15:17:09.149Z,13.30
2022-11-16T15:19:36.402Z,13.45
2022-11-16T15:22:04.726Z,14.23
2022-11-16T15:24:33.557Z,13.98
2022-11-16T15:27:19.156Z,13.50
2022-11-16T15:29:46.097Z,12.65
2022-11-16T15:32:15.973Z,14.02
2022-11-16T15:34:47.694Z,13.93
2022-11-16T15:37:15.458Z,14.60
2022-11-16T15:39:43.024Z,14.18
2022-11-16T15:42:14.044Z,14.95
2022-11-16T15:44:41.342Z,14.90
2022-11-16T15:47:10.490Z,14.73
2022-11-16T15:49:38.471Z,15.30
2022-11-16T15:52:05.952Z,16.85
2022-11-16T15:54:52.758Z,14.13
2022-11-16T15:57:20.868Z,15.05
2022-11-16T15:59:54.789Z,15.23
2022-11-16T16:02:23.257Z,14.57
2022-11-16T16:04:50.175Z,14.02
2022-11-16T16:07:39.919Z,15.85
2022-11-16T16:10:24.005Z,15.70
2022-11-16T16:13:01.277Z,14.75
2022-11-16T16:15:34.228Z,15.43
2022-11-16T16:18:02.531Z,14.50
2022-11-16T16:20:31.501Z,14.88
2022-11-16T16:23:16.609Z,15.15
2022-11-16T16:25:49.010Z,14.32
2022-11-16T16:28:16.972Z,14.93
2022-11-16T16:30:44.038Z,13.73
2022-11-16T16:33:18.744Z,14.00
2022-11-16T16:35:49.920Z,13.38
2022-11-16T16:38:17.113Z,13.60
2022-11-16T16:40:43.927Z,12.60
2022-11-16T16:43:14.089Z,14.15
2022-11-16T16:45:43.911Z,13.20
2022-11-16T16:48:14.449Z,13.00
2022-11-16T16:50:41.205Z,12.95
2022-11-16T16:53:11.568Z,13.13
2022-11-16T16:55:38.553Z,12.63
2022-11-16T16:58:05.864Z,12.93
2022-11-16T17:00:33.026Z,12.73
2022-11-16T17:02:59.736Z,13.05
2022-11-16T17:05:26.685Z,11.95
2022-11-16T17:07:56.782Z,12.45
2022-11-16T17:10:24.164Z,12.05
2022-11-16T17:12:54.115Z,12.15
2022-11-16T17:15:21.087Z,12.98
2022-11-16T17:17:48.580Z,11.38
2022-11-16T17:20:16.465Z,11.50
2022-11-16T17:22:45.709Z,12.05
2022-11-16T17:25:12.511Z,11.40
2022-11-16T17:27:39.684Z,12.52
2022-11-16T17:30:07.654Z,11.82
2022-11-16T17:32:34.525Z,11.27
2022-11-16T17:35:02.388Z,16.67
2022-11-16T17:37:29.261Z,12.73
2022-11-16T17:39:56.072Z,12.55
2022-11-16T17:42:22.840Z,21.15
2022-11-16T17:44:50.040Z,11.88
2022-11-16T17:47:16.869Z,11.93
2022-11-16T17:49:43.921Z,11.23
2022-11-16T17:52:11.162Z,11.95
2022-11-16T17:54:38.121Z,12.13
2022-11-16T17:57:04.965Z,10.85
2022-11-16T17:59:31.838Z,11.05
2022-11-16T18:01:58.927Z,10.65
2022-11-16T18:04:25.772Z,11.43
2022-11-16T18:06:52.711Z,10.95
2022-11-16T18:09:19.659Z,10.68
2022-11-16T18:11:46.507Z,10.30
2022-11-16T18:14:13.872Z,9.98
2022-11-16T18:16:43.345Z,9.85
2022-11-16T18:19:16.192Z,10.52
2022-11-16T18:21:43.134Z,10.73
2022-11-16T18:24:17.017Z,9.40
2022-11-16T18:26:45.840Z,10.48
2022-11-16T18:29:15.970Z,9.30
2022-11-16T18:31:43.106Z,10.15
2022-11-16T18:34:12.477Z,8.63
2022-11-16T18:36:39.245Z,9.13
2022-11-16T18:39:07.297Z,9.40
2022-11-16T18:41:34.658Z,9.32
2022-11-16T18:44:02.041Z,8.50
2022-11-16T18:46:31.090Z,9.02
2022-11-16T18:48:58.493Z,8.93
2022-11-16T18:51:27.385Z,8.48
2022-11-16T18:53:54.731Z,9.02
2022-11-16T18:56:22.286Z,8.18
2022-11-16T18:58:51.426Z,8.30
2022-11-16T19:01:22.098Z,8.27
2022-11-16T19:03:50.003Z,8.73
2022-11-16T19:06:18.266Z,8.88
2022-11-16T19:08:50.403Z,14.15
2022-11-16T19:11:21.922Z,35.97
2022-11-16T19:13:52.985Z,16.95
2022-11-16T19:16:19.998Z,12.70
2022-11-16T19:18:46.854Z,10.50
2022-11-16T19:21:15.459Z,9.52
2022-11-16T19:23:44.565Z,8.38
2022-11-16T19:26:13.591Z,8.85
2022-11-16T19:28:42.695Z,9.00
2022-11-16T19:31:18.841Z,9.00
2022-11-16T19:33:45.940Z,8.23
2022-11-16T19:36:15.371Z,8.52
2022-11-16T19:38:43.150Z,9.05
2022-11-16T19:41:11.592Z,8.02
2022-11-16T19:43:38.948Z,8.02
2022-11-16T19:46:11.190Z,8.35
2022-11-16T19:48:38.965Z,8.88
2022-11-16T19:51:10.881Z,8.68
2022-11-16T19:53:39.999Z,8.68
2022-11-16T19:56:09.400Z,8.60
2022-11-16T19:58:38.416Z,8.27
2022-11-16T20:01:08.445Z,8.88
2022-11-16T20:03:38.480Z,8.45
2022-11-16T20:06:13.798Z,8.68
2022-11-16T20:08:42.342Z,8.63
2022-11-16T20:11:16.649Z,9.25
2022-11-16T20:13:43.939Z,8.35
2022-11-16T20:16:12.276Z,8.23
2022-11-16T20:18:40.597Z,8.93
2022-11-16T20:21:08.885Z,8.90
2022-11-16T20:23:36.341Z,18.00
2022-11-16T20:26:08.275Z,10.25
2022-11-16T20:28:37.081Z,8.68
2022-11-16T20:31:07.388Z,8.00
2022-11-16T20:33:35.086Z,8.35
2022-11-16T20:36:11.816Z,9.00
2022-11-16T20:38:39.401Z,8.00
2022-11-16T20:41:14.332Z,9.65
2022-11-16T20:43:42.396Z,9.48
2022-11-16T20:46:10.349Z,9.32
2022-11-16T20:48:38.433Z,11.18
2022-11-16T20:51:06.022Z,10.52
2022-11-16T20:53:33.463Z,8.98
2022-11-16T20:56:03.962Z,7.95
2022-11-16T20:58:31.749Z,7.50
2022-11-16T21:01:10.342Z,7.43
2022-11-16T21:03:37.771Z,7.28
2022-11-16T21:06:08.941Z,7.97
2022-11-16T21:08:36.799Z,7.45
2022-11-16T21:11:10.341Z,8.25
2022-11-16T21:13:55.918Z,8.15
2022-11-16T21:16:22.738Z,7.63
2022-11-16T21:18:49.766Z,7.45
2022-11-16T21:21:16.688Z,7.35
2022-11-16T21:23:47.442Z,6.93
2022-11-16T21:26:15.332Z,7.22
2022-11-16T21:28:44.907Z,7.13
2022-11-16T21:31:16.877Z,6.90
2022-11-16T21:33:47.663Z,6.90
2022-11-16T21:36:22.604Z,6.53
2022-11-16T21:38:49.843Z,7.25
2022-11-16T21:41:18.160Z,7.15
2022-11-16T21:43:45.289Z,6.82
2022-11-16T21:46:17.124Z,7.95
2022-11-16T21:48:44.641Z,7.13
2022-11-16T21:51:16.957Z,6.95
2022-11-16T21:53:44.440Z,7.60
2022-11-16T21:56:20.218Z,7.20
2022-11-16T21:58:47.753Z,7.32
2022-11-16T22:01:16.389Z,7.45
2022-11-16T22:03:43.479Z,6.78
2022-11-16T22:06:32.456Z,7.03
2022-11-16T22:08:59.459Z,6.65
2022-11-16T22:11:26.786Z,7.50
2022-11-16T22:13:53.636Z,7.57
2022-11-16T22:16:21.554Z,6.90
2022-11-16T22:18:48.311Z,6.80
2022-11-16T22:21:15.120Z,7.57
2022-11-16T22:23:42.076Z,7.05
2022-11-16T22:26:11.286Z,7.68
2022-11-16T22:28:38.718Z,7.20
2022-11-16T22:31:07.841Z,7.53
2022-11-16T22:33:35.070Z,7.55
2022-11-16T22:36:03.826Z,7.15
2022-11-16T22:38:31.253Z,6.93
2022-11-16T22:40:58.346Z,6.68
2022-11-16T22:43:27.600Z,7.28
2022-11-16T22:45:59.121Z,7.07
2022-11-16T22:48:33.330Z,6.97
2022-11-16T22:51:11.361Z,6.90
2022-11-16T22:53:38.553Z,6.93
2022-11-16T22:56:07.068Z,7.07
2022-11-16T22:58:34.679Z,7.05
2022-11-16T23:01:01.886Z,6.43
2022-11-16T23:03:29.528Z,6.50
2022-11-16T23:05:56.385Z,6.75
2022-11-16T23:08:25.134Z,6.53
2022-11-16T23:11:37.868Z,6.30
2022-11-16T23:14:23.948Z,5.95
2022-11-16T23:16:50.934Z,6.13
2022-11-16T23:19:37.902Z,6.47
2022-11-16T23:22:23.927Z,6.70
2022-11-16T23:25:09.517Z,6.00
2022-11-16T23:27:55.942Z,6.63
2022-11-16T23:30:23.381Z,6.38
2022-11-16T23:32:50.181Z,7.13
2022-11-16T23:35:17.487Z,6.72
2022-11-16T23:37:57.127Z,6.95
2022-11-16T23:40:34.851Z,7.35
2022-11-16T23:43:20.371Z,7.60
2022-11-16T23:45:47.386Z,8.15
2022-11-16T23:48:15.599Z,8.05
2022-11-16T23:50:43.007Z,9.30
2022-11-16T23:53:10.420Z,8.90
2022-11-16T23:55:40.982Z,9.18
2022-11-16T23:58:12.606Z,9.10
